createdAt,value
2022-12-05T00:00:28.430Z,77162.63
2022-12-05T00:02:55.012Z,77153.00
2022-12-05T00:05:21.555Z,77153.00
2022-12-05T00:07:48.357Z,77154.91
2022-12-05T00:10:15.404Z,77145.28
2022-12-05T00:12:41.888Z,77147.22
2022-12-05T00:15:12.443Z,77151.06
2022-12-05T00:17:40.754Z,77154.91
2022-12-05T00:20:08.011Z,77156.84
2022-12-05T00:22:38.547Z,77145.28
2022-12-05T00:25:06.377Z,77137.56
2022-12-05T00:27:33.052Z,77149.13
2022-12-05T00:29:59.968Z,77141.44
2022-12-05T00:32:28.459Z,77145.28
2022-12-05T00:34:55.008Z,77141.44
2022-12-05T00:37:22.234Z,77145.28
2022-12-05T00:39:49.409Z,77153.00
2022-12-05T00:42:16.058Z,77154.91
2022-12-05T00:44:42.579Z,77145.28
2022-12-05T00:47:09.244Z,77149.13
2022-12-05T00:49:35.875Z,77145.28
2022-12-05T00:52:02.487Z,77151.06
2022-12-05T00:54:29.039Z,77153.00
2022-12-05T00:56:56.402Z,77147.22
2022-12-05T00:59:22.955Z,77151.06
2022-12-05T01:01:50.692Z,77145.28
2022-12-05T01:04:21.513Z,77145.28
2022-12-05T01:06:48.323Z,77151.06
2022-12-05T01:09:15.959Z,77149.13
2022-12-05T01:11:42.957Z,77160.69
2022-12-05T01:14:10.822Z,77154.91
2022-12-05T01:16:38.481Z,77149.13
2022-12-05T01:19:06.257Z,77168.41
2022-12-05T01:21:32.917Z,77174.19
2022-12-05T01:23:59.554Z,77172.28
2022-12-05T01:26:26.263Z,77164.56
2022-12-05T01:28:53.077Z,77176.13
2022-12-05T01:31:22.798Z,77176.13
2022-12-05T01:33:49.867Z,77176.13
2022-12-05T01:36:16.817Z,77164.56
2022-12-05T01:38:44.086Z,77164.56
2022-12-05T01:41:21.192Z,77164.56
2022-12-05T01:43:53.842Z,77174.19
2022-12-05T01:46:20.456Z,77179.97
2022-12-05T01:48:47.389Z,77176.13
2022-12-05T01:51:14.040Z,77162.63
2022-12-05T01:53:40.705Z,77172.28
2022-12-05T01:56:08.277Z,77160.69
2022-12-05T01:58:37.569Z,77160.69
2022-12-05T02:01:04.489Z,77160.69
2022-12-05T02:03:31.322Z,77166.47
2022-12-05T02:05:58.922Z,77174.19
2022-12-05T02:08:27.907Z,77164.56
2022-12-05T02:10:56.763Z,77176.13
2022-12-05T02:13:32.644Z,77176.13
2022-12-05T02:16:05.792Z,77172.28
2022-12-05T02:18:35.557Z,77183.84
2022-12-05T02:21:19.252Z,77191.53
2022-12-05T02:23:45.817Z,77179.97
2022-12-05T02:26:30.570Z,77185.75
2022-12-05T02:29:11.169Z,77178.06
2022-12-05T02:31:37.902Z,77187.69
2022-12-05T02:34:14.571Z,77185.75
2022-12-05T02:37:07.391Z,77187.69
2022-12-05T02:39:41.488Z,77183.84
2022-12-05T02:42:15.714Z,77176.13
2022-12-05T02:44:54.323Z,77191.53
2022-12-05T02:47:22.768Z,77195.41
2022-12-05T02:49:50.981Z,77191.53
2022-12-05T02:52:18.125Z,77195.41
2022-12-05T02:54:46.673Z,77191.53
2022-12-05T02:57:13.543Z,77201.19
2022-12-05T02:59:40.190Z,77195.41
2022-12-05T03:02:08.431Z,77187.69
2022-12-05T03:04:35.611Z,77187.69
2022-12-05T03:07:09.116Z,77183.84
2022-12-05T03:09:47.899Z,77183.84
2022-12-05T03:12:28.937Z,77178.06
2022-12-05T03:14:58.690Z,77178.06
2022-12-05T03:17:28.572Z,77179.97
2022-12-05T03:20:02.596Z,77172.28
2022-12-05T03:22:42.486Z,77179.97
2022-12-05T03:25:09.815Z,77174.19
2022-12-05T03:27:52.146Z,77174.19
2022-12-05T03:30:21.217Z,77179.97
2022-12-05T03:32:50.873Z,77172.28
2022-12-05T03:35:49.647Z,77176.13
2022-12-05T03:38:20.063Z,77179.97
2022-12-05T03:40:49.793Z,77178.06
2022-12-05T03:43:35.198Z,77185.75
2022-12-05T03:46:05.169Z,77179.97
2022-12-05T03:48:46.796Z,77187.69
2022-12-05T03:51:16.564Z,77187.69
2022-12-05T03:54:02.329Z,77193.47
2022-12-05T03:56:38.340Z,77199.25
2022-12-05T03:59:07.642Z,77201.19
2022-12-05T04:01:35.258Z,77199.25
2022-12-05T04:04:22.000Z,77199.25
2022-12-05T04:06:50.596Z,77199.25
2022-12-05T04:09:24.734Z,77210.81
2022-12-05T04:11:54.530Z,77205.03
2022-12-05T04:14:34.069Z,77203.09
2022-12-05T04:17:03.875Z,77203.09
2022-12-05T04:19:59.166Z,77203.09
2022-12-05T04:22:26.571Z,77205.03
2022-12-05T04:25:13.601Z,77214.66
2022-12-05T04:27:40.151Z,77214.66
2022-12-05T04:30:09.283Z,77218.53
2022-12-05T04:32:43.807Z,77214.66
2022-12-05T04:35:14.459Z,77206.97
2022-12-05T04:37:44.380Z,77206.97
2022-12-05T04:40:14.836Z,77210.81
2022-12-05T04:42:43.286Z,77205.03
2022-12-05T04:45:11.844Z,77203.09
2022-12-05T04:47:43.300Z,77210.81
2022-12-05T04:50:11.346Z,77214.66
2022-12-05T04:52:39.145Z,77216.59
2022-12-05T04:55:26.211Z,77214.66
2022-12-05T04:58:00.063Z,77222.38
2022-12-05T05:00:28.590Z,77222.38
2022-12-05T05:02:59.042Z,77222.38
2022-12-05T05:05:26.752Z,77210.81
2022-12-05T05:07:54.801Z,77226.22
2022-12-05T05:10:27.065Z,77218.53
2022-12-05T05:12:53.744Z,77228.16
2022-12-05T05:15:20.322Z,77237.78
2022-12-05T05:17:46.835Z,77233.94
2022-12-05T05:20:25.344Z,77241.66
2022-12-05T05:22:52.579Z,77251.28
2022-12-05T05:25:20.900Z,77249.38
2022-12-05T05:27:48.023Z,77255.16
2022-12-05T05:30:14.656Z,77257.06
2022-12-05T05:32:41.198Z,77249.38
2022-12-05T05:35:07.872Z,77249.38
2022-12-05T05:37:34.395Z,77249.38
2022-12-05T05:40:04.975Z,77245.50
2022-12-05T05:42:34.341Z,77245.50
2022-12-05T05:45:01.034Z,77243.56
2022-12-05T05:47:27.614Z,77241.66
2022-12-05T05:49:54.240Z,77253.22
2022-12-05T05:52:21.162Z,77257.06
2022-12-05T05:54:47.644Z,77259.00
2022-12-05T05:57:20.113Z,77260.94
2022-12-05T05:59:47.027Z,77260.94
2022-12-05T06:02:13.570Z,77262.84
2022-12-05T06:04:40.183Z,77264.78
2022-12-05T06:07:07.119Z,77260.94
2022-12-05T06:09:33.630Z,77268.63
2022-12-05T06:12:00.237Z,77266.72
2022-12-05T06:14:26.789Z,77268.63
2022-12-05T06:16:53.370Z,77276.34
2022-12-05T06:19:20.016Z,77270.56
2022-12-05T06:21:48.564Z,77270.56
2022-12-05T06:24:15.088Z,77276.34
2022-12-05T06:26:41.740Z,77280.19
2022-12-05T06:29:08.354Z,77278.28
2022-12-05T06:31:35.006Z,77274.41
2022-12-05T06:34:02.895Z,77276.34
2022-12-05T06:36:29.903Z,77272.50
2022-12-05T06:38:58.702Z,77284.06
2022-12-05T06:41:25.882Z,77285.97
2022-12-05T06:43:56.284Z,77295.63
2022-12-05T06:46:26.911Z,77295.63
2022-12-05T06:48:53.854Z,77299.47
2022-12-05T06:51:20.574Z,77301.41
2022-12-05T06:53:47.361Z,77311.03
2022-12-05T06:56:15.532Z,77311.03
2022-12-05T06:58:43.145Z,77314.91
2022-12-05T07:01:35.485Z,77318.75
2022-12-05T07:04:02.176Z,77334.16
2022-12-05T07:06:28.829Z,77339.94
2022-12-05T07:08:55.558Z,77343.81
2022-12-05T07:11:22.225Z,77336.09
2022-12-05T07:13:49.074Z,77338.03
2022-12-05T07:16:15.625Z,77338.03
2022-12-05T07:18:42.207Z,77339.94
2022-12-05T07:21:12.518Z,77343.81
2022-12-05T07:23:40.225Z,77349.59
2022-12-05T07:26:07.690Z,77345.72
2022-12-05T07:28:34.520Z,77349.59
2022-12-05T07:31:05.074Z,77341.88
2022-12-05T07:33:31.796Z,77345.72
2022-12-05T07:36:01.939Z,77345.72
2022-12-05T07:38:28.944Z,77345.72
2022-12-05T07:40:55.592Z,77345.72
2022-12-05T07:43:22.636Z,77349.59
2022-12-05T07:45:49.247Z,77349.59
2022-12-05T07:48:18.832Z,77349.59
2022-12-05T07:50:45.830Z,77345.72
2022-12-05T07:53:12.391Z,77345.72
2022-12-05T07:55:39.291Z,77343.81
2022-12-05T07:58:05.980Z,77345.72
2022-12-05T08:00:32.649Z,77349.59
2022-12-05T08:02:59.499Z,77341.88
2022-12-05T08:05:26.062Z,77334.16
2022-12-05T08:07:52.644Z,77338.03
2022-12-05T08:10:19.203Z,77328.38
2022-12-05T08:12:45.725Z,77330.31
2022-12-05T08:15:12.583Z,77326.47
2022-12-05T08:17:39.118Z,77326.47
2022-12-05T08:20:06.069Z,77322.59
2022-12-05T08:22:35.622Z,77322.59
2022-12-05T08:25:02.148Z,77324.53
2022-12-05T08:27:28.669Z,77318.75
2022-12-05T08:29:55.387Z,77318.75
2022-12-05T08:32:22.355Z,77326.47
2022-12-05T08:34:48.898Z,77330.31
2022-12-05T08:37:15.576Z,77330.31
2022-12-05T08:39:42.193Z,77330.31
2022-12-05T08:42:08.853Z,77334.16
2022-12-05T08:44:35.347Z,77338.03
2022-12-05T08:47:01.833Z,77341.88
2022-12-05T08:49:28.457Z,77349.59
2022-12-05T08:51:54.916Z,77339.94
2022-12-05T08:54:21.448Z,77345.72
2022-12-05T08:56:50.432Z,77349.59
2022-12-05T08:59:17.032Z,77347.66
2022-12-05T09:01:43.681Z,77349.59
2022-12-05T09:04:10.339Z,77347.66
2022-12-05T09:06:37.046Z,77345.72
2022-12-05T09:09:04.747Z,77347.66
2022-12-05T09:11:33.556Z,77341.88
2022-12-05T09:14:00.824Z,77345.72
2022-12-05T09:16:36.640Z,77341.88
2022-12-05T09:19:11.033Z,77345.72
2022-12-05T09:21:37.623Z,77339.94
2022-12-05T09:24:04.367Z,77338.03
2022-12-05T09:26:30.973Z,77336.09
2022-12-05T09:28:58.151Z,77330.31
2022-12-05T09:31:27.206Z,77330.31
2022-12-05T09:33:54.044Z,77324.53
2022-12-05T09:36:23.227Z,77330.31
2022-12-05T09:38:50.024Z,77336.09
2022-12-05T09:41:21.758Z,77328.38
2022-12-05T09:44:00.675Z,77334.16
2022-12-05T09:46:42.461Z,77332.25
2022-12-05T09:49:09.562Z,77332.25
2022-12-05T09:51:40.653Z,77334.16
2022-12-05T09:54:08.630Z,77322.59
2022-12-05T09:56:35.171Z,77326.47
2022-12-05T09:59:01.866Z,77322.59
2022-12-05T10:01:31.334Z,77326.47
2022-12-05T10:04:17.645Z,77334.16
2022-12-05T10:06:53.403Z,77349.59
2022-12-05T10:09:24.407Z,77349.59
2022-12-05T10:12:03.342Z,77341.88
2022-12-05T10:14:54.368Z,77345.72
2022-12-05T10:17:27.287Z,77345.72
2022-12-05T10:19:56.407Z,77349.59
2022-12-05T10:22:26.517Z,77341.88
2022-12-05T10:24:55.952Z,77328.38
2022-12-05T10:27:40.988Z,77334.16
2022-12-05T10:30:13.982Z,77341.88
2022-12-05T10:32:48.124Z,77343.81
2022-12-05T10:35:17.946Z,77341.88
2022-12-05T10:37:48.291Z,77341.88
2022-12-05T10:40:15.288Z,77338.03
2022-12-05T10:42:42.075Z,77341.88
2022-12-05T10:45:14.401Z,77353.44
2022-12-05T10:47:40.918Z,77353.44
2022-12-05T10:50:18.180Z,77345.72
2022-12-05T10:52:44.922Z,77341.88
2022-12-05T10:55:13.977Z,77355.38
2022-12-05T10:57:40.470Z,77349.59
2022-12-05T11:00:15.345Z,77351.50
2022-12-05T11:02:42.978Z,77349.59
2022-12-05T11:05:10.037Z,77347.66
2022-12-05T11:07:45.808Z,77349.59
2022-12-05T11:10:30.888Z,77349.59
2022-12-05T11:12:58.723Z,77353.44
2022-12-05T11:15:28.058Z,77349.59
2022-12-05T11:17:56.174Z,77347.66
2022-12-05T11:20:22.637Z,77345.72
2022-12-05T11:22:50.801Z,77338.03
2022-12-05T11:25:30.224Z,77334.16
2022-12-05T11:28:01.650Z,77326.47
2022-12-05T11:30:29.493Z,77326.47
2022-12-05T11:33:22.425Z,77324.53
2022-12-05T11:35:52.014Z,77326.47
2022-12-05T11:38:21.157Z,77322.59
2022-12-05T11:40:53.034Z,77316.81
2022-12-05T11:43:19.504Z,77312.97
2022-12-05T11:46:01.423Z,77314.91
2022-12-05T11:48:41.025Z,77307.19
2022-12-05T11:51:26.502Z,77311.03
2022-12-05T11:53:53.046Z,77299.47
2022-12-05T11:56:19.898Z,77299.47
2022-12-05T11:58:55.797Z,77303.34
2022-12-05T12:01:30.903Z,77299.47
2022-12-05T12:04:03.540Z,77295.63
2022-12-05T12:06:39.315Z,77289.84
2022-12-05T12:09:14.694Z,77291.75
2022-12-05T12:11:49.156Z,77291.75
2022-12-05T12:14:19.456Z,77284.06
2022-12-05T12:17:04.720Z,77287.91
2022-12-05T12:19:54.248Z,77285.97
2022-12-05T12:22:20.790Z,77280.19
2022-12-05T12:25:06.442Z,77280.19
2022-12-05T12:27:35.750Z,77274.41
2022-12-05T12:30:06.491Z,77264.78
2022-12-05T12:32:44.123Z,77253.22
2022-12-05T12:35:43.053Z,77245.50
2022-12-05T12:38:22.032Z,77237.78
2022-12-05T12:40:48.896Z,77237.78
2022-12-05T12:43:52.119Z,77230.09
2022-12-05T12:46:15.781Z,77230.09
2022-12-05T12:48:48.270Z,77222.38
2022-12-05T12:51:14.810Z,77233.94
2022-12-05T12:54:13.924Z,77232.00
2022-12-05T12:57:03.687Z,77241.66
2022-12-05T12:59:39.153Z,77245.50
2022-12-05T13:02:11.811Z,77243.56
2022-12-05T13:04:59.746Z,77245.50
2022-12-05T13:07:33.837Z,77245.50
2022-12-05T13:10:03.108Z,77247.44
2022-12-05T13:12:32.638Z,77243.56
2022-12-05T13:15:07.466Z,77241.66
2022-12-05T13:17:34.095Z,77245.50
2022-12-05T13:20:00.857Z,77241.66
2022-12-05T13:22:28.590Z,77235.88
2022-12-05T13:24:57.895Z,77235.88
2022-12-05T13:27:27.601Z,77239.72
2022-12-05T13:30:01.744Z,77241.66
2022-12-05T13:32:33.264Z,77249.38
2022-12-05T13:35:18.749Z,77249.38
2022-12-05T13:38:05.321Z,77243.56
2022-12-05T13:40:52.491Z,77247.44
2022-12-05T13:43:20.758Z,77245.50
2022-12-05T13:46:00.007Z,77243.56
2022-12-05T13:48:28.184Z,77253.22
2022-12-05T13:50:59.990Z,77249.38
2022-12-05T13:53:26.495Z,77245.50
2022-12-05T13:55:56.079Z,77249.38
2022-12-05T13:58:22.600Z,77253.22
2022-12-05T14:00:52.859Z,77253.22
2022-12-05T14:03:34.779Z,77243.56
2022-12-05T14:06:01.488Z,77247.44
2022-12-05T14:08:31.485Z,77253.22
2022-12-05T14:10:58.047Z,77245.50
2022-12-05T14:13:25.422Z,77245.50
2022-12-05T14:15:53.256Z,77245.50
2022-12-05T14:18:38.250Z,77251.28
2022-12-05T14:21:15.698Z,77251.28
2022-12-05T14:23:49.040Z,77245.50
2022-12-05T14:26:34.832Z,77245.50
2022-12-05T14:29:07.371Z,77241.66
2022-12-05T14:31:49.600Z,77241.66
2022-12-05T14:34:16.194Z,77230.09
2022-12-05T14:36:58.094Z,77222.38
2022-12-05T14:39:33.849Z,77222.38
2022-12-05T14:42:01.726Z,77220.44
2022-12-05T14:44:32.191Z,77222.38
2022-12-05T14:47:03.332Z,77218.53
2022-12-05T14:49:38.075Z,77228.16
2022-12-05T14:52:12.206Z,77226.22
2022-12-05T14:54:39.658Z,77228.16
2022-12-05T14:57:13.136Z,77232.00
2022-12-05T14:59:45.485Z,77233.94
2022-12-05T15:02:18.937Z,77237.78
2022-12-05T15:04:57.898Z,77241.66
2022-12-05T15:07:37.127Z,77241.66
2022-12-05T15:10:22.486Z,77251.28
2022-12-05T15:12:57.336Z,77249.38
2022-12-05T15:15:42.862Z,77260.94
2022-12-05T15:18:18.946Z,77264.78
2022-12-05T15:21:04.377Z,77272.50
2022-12-05T15:23:55.574Z,77274.41
2022-12-05T15:29:20.498Z,77280.19
2022-12-05T15:31:47.089Z,77278.28
2022-12-05T15:34:20.379Z,77272.50
2022-12-05T15:36:50.879Z,77272.50
2022-12-05T15:39:24.112Z,77276.34
2022-12-05T15:41:51.786Z,77280.19
2022-12-05T15:44:25.264Z,77291.75
2022-12-05T15:46:54.556Z,77291.75
2022-12-05T15:49:23.284Z,77287.91
2022-12-05T15:51:51.862Z,77291.75
2022-12-05T15:54:23.691Z,77295.63
2022-12-05T15:56:57.567Z,77299.47
2022-12-05T15:59:38.024Z,77297.53
2022-12-05T16:02:16.819Z,77291.75
2022-12-05T16:04:52.993Z,77289.84
2022-12-05T16:07:21.424Z,77289.84
2022-12-05T16:09:48.728Z,77291.75
2022-12-05T16:12:18.547Z,77289.84
2022-12-05T16:15:04.961Z,77293.69
2022-12-05T16:17:39.326Z,77295.63
2022-12-05T16:20:20.825Z,77295.63
2022-12-05T16:22:48.288Z,77293.69
2022-12-05T16:25:16.104Z,77299.47
2022-12-05T16:27:44.070Z,77295.63
2022-12-05T16:30:20.755Z,77297.53
2022-12-05T16:32:49.208Z,77295.63
2022-12-05T16:35:34.208Z,77287.91
2022-12-05T16:38:09.912Z,77291.75
2022-12-05T16:40:37.120Z,77293.69
2022-12-05T16:43:17.296Z,77291.75
2022-12-05T16:45:45.113Z,77289.84
2022-12-05T16:48:30.807Z,77287.91
2022-12-05T16:51:16.158Z,77289.84
2022-12-05T16:53:50.446Z,77287.91
2022-12-05T16:56:20.016Z,77284.06
2022-12-05T16:58:46.761Z,77284.06
2022-12-05T17:01:16.009Z,77287.91
2022-12-05T17:03:42.709Z,77280.19
2022-12-05T17:06:09.268Z,77278.28
2022-12-05T17:08:35.829Z,77274.41
2022-12-05T17:11:03.589Z,77276.34
2022-12-05T17:13:31.719Z,77280.19
2022-12-05T17:15:58.360Z,77280.19
2022-12-05T17:18:30.953Z,77278.28
2022-12-05T17:21:00.105Z,77278.28
2022-12-05T17:23:26.794Z,77280.19
2022-12-05T17:25:54.641Z,77282.13
2022-12-05T17:28:21.343Z,77280.19
2022-12-05T17:30:48.102Z,77276.34
2022-12-05T17:33:16.292Z,77276.34
2022-12-05T17:35:43.143Z,77280.19
2022-12-05T17:38:12.755Z,77280.19
2022-12-05T17:40:39.950Z,77278.28
2022-12-05T17:43:06.576Z,77282.13
2022-12-05T17:45:33.639Z,77284.06
2022-12-05T17:48:00.254Z,77284.06
2022-12-05T17:50:27.871Z,77285.97
2022-12-05T17:52:55.721Z,77284.06
2022-12-05T17:55:23.980Z,77284.06
2022-12-05T17:57:50.731Z,77280.19
2022-12-05T18:00:18.481Z,77289.84
2022-12-05T18:02:45.769Z,77299.47
2022-12-05T18:05:13.495Z,77307.19
2022-12-05T18:07:40.886Z,77318.75
2022-12-05T18:10:12.662Z,77326.47
2022-12-05T18:12:39.607Z,77318.75
2022-12-05T18:15:06.407Z,77332.25
2022-12-05T18:17:33.168Z,77324.53
2022-12-05T18:19:59.923Z,77326.47
2022-12-05T18:22:27.022Z,77336.09
2022-12-05T18:24:53.919Z,77339.94
2022-12-05T18:27:21.230Z,77341.88
2022-12-05T18:29:48.633Z,77343.81
2022-12-05T18:32:15.878Z,77341.88
2022-12-05T18:34:42.581Z,77339.94
2022-12-05T18:37:10.563Z,77336.09
2022-12-05T18:39:37.547Z,77328.38
2022-12-05T18:42:04.751Z,77322.59
2022-12-05T18:44:31.680Z,77322.59
2022-12-05T18:46:58.321Z,77322.59
2022-12-05T18:49:24.885Z,77322.59
2022-12-05T18:51:51.856Z,77326.47
2022-12-05T18:54:18.380Z,77338.03
2022-12-05T18:56:46.023Z,77334.16
2022-12-05T18:59:16.536Z,77334.16
2022-12-05T19:01:43.529Z,77330.31
2022-12-05T19:04:14.529Z,77330.31
2022-12-05T19:06:43.227Z,77326.47
2022-12-05T19:09:12.713Z,77328.38
2022-12-05T19:11:47.388Z,77328.38
2022-12-05T19:14:16.116Z,77341.88
2022-12-05T19:16:42.939Z,77338.03
2022-12-05T19:19:12.134Z,77338.03
2022-12-05T19:21:38.675Z,77336.09
2022-12-05T19:24:06.177Z,77339.94
2022-12-05T19:26:33.020Z,77334.16
2022-12-05T19:28:59.861Z,77326.47
2022-12-05T19:31:27.714Z,77326.47
2022-12-05T19:33:55.643Z,77322.59
2022-12-05T19:36:24.815Z,77320.69
2022-12-05T19:38:52.481Z,77322.59
2022-12-05T19:41:20.652Z,77322.59
2022-12-05T19:43:47.371Z,77318.75
2022-12-05T19:46:15.574Z,77318.75
2022-12-05T19:48:42.597Z,77322.59
2022-12-05T19:51:09.246Z,77318.75
2022-12-05T19:53:37.440Z,77318.75
2022-12-05T19:56:05.495Z,77326.47
2022-12-05T19:58:33.002Z,77318.75
2022-12-05T20:01:08.749Z,77318.75
2022-12-05T20:03:35.502Z,77316.81
2022-12-05T20:06:02.113Z,77314.91
2022-12-05T20:08:28.629Z,77314.91
2022-12-05T20:10:55.137Z,77314.91
2022-12-05T20:13:45.915Z,77316.81
2022-12-05T20:16:10.330Z,77314.91
2022-12-05T20:18:37.689Z,77316.81
2022-12-05T20:21:04.742Z,77314.91
2022-12-05T20:23:31.879Z,77314.91
2022-12-05T20:26:04.521Z,77311.03
2022-12-05T20:28:31.042Z,77307.19
2022-12-05T20:31:05.322Z,77303.34
2022-12-05T20:33:31.995Z,77295.63
2022-12-05T20:36:04.493Z,77293.69
2022-12-05T20:38:31.241Z,77295.63
2022-12-05T20:40:58.475Z,77295.63
2022-12-05T20:43:25.000Z,77291.75
2022-12-05T20:45:51.596Z,77289.84
2022-12-05T20:48:18.124Z,77282.13
2022-12-05T20:50:44.596Z,77280.19
2022-12-05T20:53:11.116Z,77276.34
2022-12-05T20:55:37.786Z,77282.13
2022-12-05T20:58:05.396Z,77297.53
2022-12-05T21:00:33.078Z,77297.53
2022-12-05T21:02:59.676Z,77297.53
2022-12-05T21:05:26.345Z,77282.13
2022-12-05T21:07:52.842Z,77278.28
2022-12-05T21:10:19.419Z,77278.28
2022-12-05T21:12:45.893Z,77272.50
2022-12-05T21:15:12.496Z,77264.78
2022-12-05T21:17:39.007Z,77257.06
2022-12-05T21:20:05.901Z,77251.28
2022-12-05T21:22:32.498Z,77253.22
2022-12-05T21:24:58.996Z,77249.38
2022-12-05T21:27:25.500Z,77253.22
2022-12-05T21:29:52.441Z,77262.84
2022-12-05T21:32:18.977Z,77272.50
2022-12-05T21:34:45.547Z,77257.06
2022-12-05T21:37:12.054Z,77257.06
2022-12-05T21:39:38.550Z,77257.06
2022-12-05T21:42:05.116Z,77257.06
2022-12-05T21:44:31.601Z,77245.50
2022-12-05T21:46:58.128Z,77245.50
2022-12-05T21:49:24.722Z,77245.50
2022-12-05T21:51:51.248Z,77253.22
2022-12-05T21:54:17.762Z,77253.22
2022-12-05T21:56:45.218Z,77253.22
2022-12-05T21:59:11.808Z,77253.22
2022-12-05T22:01:38.430Z,77249.38
2022-12-05T22:04:05.004Z,77241.66
2022-12-05T22:06:35.129Z,77241.66
2022-12-05T22:09:01.720Z,77230.09
2022-12-05T22:11:28.208Z,77235.88
2022-12-05T22:13:54.911Z,77237.78
2022-12-05T22:16:21.882Z,77233.94
2022-12-05T22:18:48.590Z,77226.22
2022-12-05T22:21:16.214Z,77226.22
2022-12-05T22:23:42.771Z,77222.38
2022-12-05T22:26:11.137Z,77230.09
2022-12-05T22:28:38.061Z,77224.31
2022-12-05T22:31:06.427Z,77212.75
2022-12-05T22:33:35.740Z,77214.66
2022-12-05T22:36:03.327Z,77226.22
2022-12-05T22:38:33.171Z,77233.94
2022-12-05T22:41:00.634Z,77222.38
2022-12-05T22:43:27.857Z,77220.44
2022-12-05T22:45:54.775Z,77216.59
2022-12-05T22:48:21.761Z,77210.81
2022-12-05T22:50:52.232Z,77206.97
2022-12-05T22:53:19.691Z,77206.97
2022-12-05T22:55:46.423Z,77203.09
2022-12-05T22:58:12.932Z,77195.41
2022-12-05T23:00:39.506Z,77206.97
2022-12-05T23:03:06.071Z,77205.03
2022-12-05T23:05:32.951Z,77208.88
2022-12-05T23:07:59.570Z,77216.59
2022-12-05T23:10:26.138Z,77222.38
2022-12-05T23:12:52.620Z,77222.38
2022-12-05T23:15:21.861Z,77233.94
2022-12-05T23:17:48.412Z,77245.50
2022-12-05T23:20:14.997Z,77247.44
2022-12-05T23:22:41.592Z,77247.44
2022-12-05T23:25:08.424Z,77245.50
2022-12-05T23:27:35.655Z,77249.38
2022-12-05T23:30:02.162Z,77260.94
2022-12-05T23:32:28.694Z,77262.84
2022-12-05T23:34:55.474Z,77253.22
2022-12-05T23:37:22.008Z,77257.06
2022-12-05T23:39:48.581Z,77255.16
2022-12-05T23:42:15.540Z,77274.41
2022-12-05T23:44:42.211Z,77284.06
2022-12-05T23:47:08.838Z,77299.47
2022-12-05T23:49:35.413Z,77291.75
2022-12-05T23:52:01.933Z,77295.63
2022-12-05T23:54:28.490Z,77295.63
2022-12-05T23:56:55.193Z,77305.25
2022-12-05T23:59:21.765Z,77309.13
